createdAt,value
2022-08-17T00:13:26.115Z,19.7
2022-08-17T00:27:26.103Z,19.6
2022-08-17T00:41:26.192Z,19.5
2022-08-17T00:55:26.181Z,20.1
2022-08-17T01:09:26.184Z,19.9
2022-08-17T01:23:26.238Z,19.7
2022-08-17T01:37:26.203Z,19.4
2022-08-17T01:51:26.202Z,19.3
2022-08-17T02:05:26.209Z,19.3
2022-08-17T02:19:26.210Z,19.2
2022-08-17T02:33:42.350Z,18.8
2022-08-17T02:47:26.240Z,18.8
2022-08-17T03:01:26.272Z,19.3
2022-08-17T03:15:26.247Z,19.5
2022-08-17T03:29:26.519Z,19.2
2022-08-17T03:43:26.908Z,18.8
2022-08-17T03:57:26.876Z,18.5
2022-08-17T04:12:26.980Z,18.8
2022-08-17T04:27:26.937Z,18.9
2022-08-17T04:42:27.013Z,19.0
2022-08-17T04:57:26.969Z,19.1
2022-08-17T05:12:26.993Z,19.3
2022-08-17T05:27:27.167Z,19.8
2022-08-17T05:42:27.184Z,20.1
2022-08-17T05:57:27.158Z,20.4
2022-08-17T06:12:27.231Z,20.8
2022-08-17T06:27:27.178Z,21.4
2022-08-17T06:42:54.489Z,23.2
2022-08-17T06:57:27.215Z,27.3
2022-08-17T07:12:27.241Z,28.8
2022-08-17T07:27:27.237Z,29.9
2022-08-17T07:42:27.256Z,28.1
2022-08-17T07:57:29.951Z,30.4
2022-08-17T08:12:30.567Z,30.5
2022-08-17T08:27:27.258Z,32.3
2022-08-17T08:42:27.240Z,31.6
2022-08-17T08:57:31.072Z,31.2
2022-08-17T09:12:27.555Z,31.0
2022-08-17T09:27:27.562Z,31.3
2022-08-17T09:42:27.577Z,31.6
2022-08-17T09:57:30.616Z,31.0
2022-08-17T10:12:30.028Z,31.9
2022-08-17T10:27:27.623Z,31.8
2022-08-17T10:43:27.815Z,31.9
2022-08-17T10:50:48.807Z,32.0
2022-08-17T11:05:48.682Z,32.8
2022-08-17T11:20:48.756Z,32.1
2022-08-17T11:35:48.884Z,32.5
2022-08-17T11:50:48.853Z,32.3
2022-08-17T12:05:48.874Z,32.4
2022-08-17T12:20:52.051Z,32.9
2022-08-17T12:35:48.914Z,32.7
2022-08-17T12:50:48.930Z,32.5
2022-08-17T13:05:48.912Z,32.2
2022-08-17T13:20:48.945Z,33.1
2022-08-17T13:35:50.358Z,33.2
2022-08-17T13:50:49.007Z,32.9
2022-08-17T14:05:49.002Z,31.8
2022-08-17T14:20:49.014Z,31.5
2022-08-17T14:35:49.024Z,34.2
2022-08-17T14:50:49.124Z,32.5
2022-08-17T15:05:49.297Z,32.3
2022-08-17T15:20:49.429Z,33.1
2022-08-17T15:35:49.544Z,32.3
2022-08-17T15:50:49.612Z,31.3
2022-08-17T16:05:49.692Z,33.7
2022-08-17T16:20:49.703Z,33.6
2022-08-17T16:35:49.879Z,32.1
2022-08-17T16:51:02.845Z,30.4
2022-08-17T17:05:51.384Z,28.4
2022-08-17T17:20:50.277Z,27.9
2022-08-17T17:35:50.273Z,27.4
2022-08-17T17:50:50.879Z,27.0
2022-08-17T18:05:50.574Z,26.4
2022-08-17T18:20:53.607Z,26.2
2022-08-17T18:35:51.048Z,26.2
2022-08-17T18:49:50.764Z,25.7
2022-08-17T19:03:51.226Z,24.9
2022-08-17T19:17:51.002Z,23.9
2022-08-17T19:31:50.836Z,23.4
2022-08-17T19:45:50.836Z,23.0
2022-08-17T19:59:50.852Z,23.0
2022-08-17T20:13:51.199Z,22.9
2022-08-17T20:27:51.284Z,22.8
2022-08-17T20:41:50.856Z,22.7
2022-08-17T20:55:52.136Z,22.3
2022-08-17T21:09:51.056Z,21.9
2022-08-17T21:23:51.011Z,21.8
2022-08-17T21:37:51.259Z,21.8
2022-08-17T21:51:51.031Z,21.6
2022-08-17T22:05:51.124Z,21.0
2022-08-17T22:19:51.170Z,20.8
2022-08-17T22:33:51.172Z,21.0
2022-08-17T22:47:51.801Z,20.9
2022-08-17T23:01:51.165Z,20.9
2022-08-17T23:15:51.201Z,20.9
2022-08-17T23:29:51.180Z,20.7
2022-08-17T23:43:51.221Z,20.4
2022-08-17T23:57:51.418Z,20.1
